createdAt,value
2018-02-17T00:00:47.747Z,0.01
2018-02-17T00:01:48.315Z,0.04
2018-02-17T00:02:48.884Z,-0.03
2018-02-17T00:03:49.450Z,0.03
2018-02-17T00:04:50.016Z,0.04
2018-02-17T00:05:50.585Z,0.05
2018-02-17T00:06:51.153Z,0.05
2018-02-17T00:07:51.722Z,-0.14
2018-02-17T00:08:52.290Z,-0.14
2018-02-17T00:09:52.856Z,0.01
2018-02-17T00:10:53.425Z,0.10
2018-02-17T00:11:53.992Z,-0.14
2018-02-17T00:12:54.561Z,-0.21
2018-02-17T00:13:55.128Z,-0.20
2018-02-17T00:14:55.695Z,-0.15
2018-02-17T00:15:56.265Z,-0.15
2018-02-17T00:16:56.832Z,-0.10
2018-02-17T00:17:57.400Z,-0.13
2018-02-17T00:18:57.968Z,-0.11
2018-02-17T00:19:58.549Z,0.04
2018-02-17T00:20:59.116Z,0.04
2018-02-17T00:21:59.682Z,0.01
2018-02-17T00:23:00.252Z,-0.10
2018-02-17T00:24:00.819Z,0.10
2018-02-17T00:25:01.387Z,-0.08
2018-02-17T00:26:01.955Z,-0.20
2018-02-17T00:27:02.522Z,-0.02
2018-02-17T00:28:03.090Z,0.04
2018-02-17T00:29:03.659Z,0.08
2018-02-17T00:30:04.227Z,-0.02
2018-02-17T00:31:04.795Z,-0.02
2018-02-17T00:32:05.365Z,-0.14
2018-02-17T00:33:05.934Z,-0.18
2018-02-17T00:34:06.503Z,-0.31
2018-02-17T00:35:07.068Z,-0.07
2018-02-17T00:36:07.637Z,-0.15
2018-02-17T00:37:08.208Z,-0.08
2018-02-17T00:38:08.775Z,-0.14
2018-02-17T00:39:09.343Z,-0.25
2018-02-17T00:40:09.911Z,-0.21
2018-02-17T00:41:10.480Z,-0.10
2018-02-17T00:42:11.049Z,-0.02
2018-02-17T00:43:11.619Z,-0.10
2018-02-17T00:44:12.198Z,0.01
2018-02-17T00:45:12.765Z,0.11
2018-02-17T00:46:13.347Z,0.11
2018-02-17T00:47:13.912Z,0.26
2018-02-17T00:48:14.478Z,0.11
2018-02-17T00:49:15.044Z,0.16
2018-02-17T00:50:15.610Z,0.01
2018-02-17T00:51:16.179Z,0.00
2018-02-17T00:52:16.765Z,-0.08
2018-02-17T00:53:17.327Z,0.01
2018-02-17T00:54:17.896Z,-0.13
2018-02-17T00:55:18.464Z,-0.07
2018-02-17T00:56:19.030Z,-0.20
2018-02-17T00:57:19.599Z,-0.43
2018-02-17T00:58:20.168Z,-0.41
2018-02-17T00:59:20.736Z,-0.18
2018-02-17T01:00:21.317Z,-0.28
2018-02-17T01:01:21.885Z,-0.23
2018-02-17T01:02:22.451Z,-0.20
2018-02-17T01:03:23.021Z,-0.25
2018-02-17T01:04:23.591Z,-0.23
2018-02-17T01:05:24.158Z,-0.21
2018-02-17T01:06:24.724Z,0.00
2018-02-17T01:07:25.292Z,0.01
2018-02-17T01:08:25.860Z,0.04
2018-02-17T01:09:26.426Z,0.03
2018-02-17T01:10:27.008Z,0.00
2018-02-17T01:11:27.576Z,-0.13
2018-02-17T01:12:28.143Z,-0.15
2018-02-17T01:13:28.710Z,-0.15
2018-02-17T01:14:29.280Z,-0.11
2018-02-17T01:15:29.848Z,-0.21
2018-02-17T01:16:30.417Z,-0.11
2018-02-17T01:17:30.984Z,-0.21
2018-02-17T01:18:31.552Z,-0.14
2018-02-17T01:19:32.121Z,-0.13
2018-02-17T01:20:32.688Z,-0.17
2018-02-17T01:21:33.256Z,-0.28
2018-02-17T01:22:33.821Z,-0.31
2018-02-17T01:23:34.390Z,-0.28
2018-02-17T01:24:34.959Z,-0.21
2018-02-17T01:25:35.526Z,-0.32
2018-02-17T01:26:36.107Z,-0.26
2018-02-17T01:27:36.676Z,-0.21
2018-02-17T01:28:37.263Z,-0.18
2018-02-17T01:29:37.825Z,-0.20
2018-02-17T01:30:38.392Z,-0.18
2018-02-17T01:31:38.978Z,-0.25
2018-02-17T01:32:39.553Z,-0.31
2018-02-17T01:33:40.135Z,-0.20
2018-02-17T01:34:40.704Z,-0.07
2018-02-17T01:35:41.268Z,-0.20
2018-02-17T01:36:41.837Z,-0.29
2018-02-17T01:37:42.405Z,-0.28
2018-02-17T01:38:42.973Z,-0.18
2018-02-17T01:39:43.540Z,-0.20
2018-02-17T01:40:44.123Z,-0.23
2018-02-17T01:41:44.690Z,-0.25
2018-02-17T01:42:45.259Z,-0.31
2018-02-17T01:43:45.827Z,-0.38
2018-02-17T01:44:46.394Z,-0.41
2018-02-17T01:45:46.962Z,-0.38
2018-02-17T01:46:47.529Z,-0.25
2018-02-17T01:47:48.100Z,-0.26
2018-02-17T01:48:48.680Z,-0.20
2018-02-17T01:49:49.247Z,-0.10
2018-02-17T01:50:49.829Z,-0.15
2018-02-17T01:51:50.397Z,-0.41
2018-02-17T01:52:50.963Z,-0.41
2018-02-17T01:53:51.530Z,-0.46
2018-02-17T01:54:52.100Z,-0.41
2018-02-17T01:55:52.667Z,-0.43
2018-02-17T01:56:53.234Z,-0.39
2018-02-17T01:57:53.815Z,-0.39
2018-02-17T01:58:54.381Z,-0.43
2018-02-17T01:59:54.946Z,-0.25
2018-02-17T02:00:55.515Z,-0.06
2018-02-17T02:01:56.082Z,-0.10
2018-02-17T02:02:56.652Z,0.00
2018-02-17T02:03:57.231Z,0.05
2018-02-17T02:04:57.798Z,-0.03
2018-02-17T02:05:58.365Z,-0.25
2018-02-17T02:06:58.948Z,-0.28
2018-02-17T02:07:59.515Z,-0.35
2018-02-17T02:09:00.085Z,-0.26
2018-02-17T02:10:00.654Z,-0.02
2018-02-17T02:11:01.221Z,-0.08
2018-02-17T02:12:01.794Z,-0.03
2018-02-17T02:13:02.359Z,-0.14
2018-02-17T02:14:02.927Z,-0.14
2018-02-17T02:15:03.495Z,-0.14
2018-02-17T02:16:04.077Z,-0.25
2018-02-17T02:17:04.645Z,-0.29
2018-02-17T02:18:05.212Z,-0.29
2018-02-17T02:19:05.782Z,-0.18
2018-02-17T02:20:06.348Z,-0.20
2018-02-17T02:21:06.916Z,-0.21
2018-02-17T02:22:07.485Z,-0.21
2018-02-17T02:23:08.066Z,-0.34
2018-02-17T02:24:08.634Z,-0.38
2018-02-17T02:25:09.202Z,-0.36
2018-02-17T02:26:09.785Z,-0.39
2018-02-17T02:27:10.354Z,-0.39
2018-02-17T02:28:10.922Z,-0.41
2018-02-17T02:29:11.491Z,-0.39
2018-02-17T02:30:12.058Z,-0.36
2018-02-17T02:31:12.627Z,-0.39
2018-02-17T02:32:13.196Z,-0.43
2018-02-17T02:33:13.764Z,-0.46
2018-02-17T02:34:14.332Z,-0.38
2018-02-17T02:35:14.900Z,-0.43
2018-02-17T02:36:15.467Z,-0.57
2018-02-17T02:37:16.037Z,-0.57
2018-02-17T02:38:16.606Z,-0.53
2018-02-17T02:39:17.186Z,-0.54
2018-02-17T02:40:17.743Z,-0.57
2018-02-17T02:41:18.325Z,-0.38
2018-02-17T02:42:18.893Z,-0.56
2018-02-17T02:43:19.459Z,-0.47
2018-02-17T02:44:20.027Z,-0.64
2018-02-17T02:45:20.597Z,-0.59
2018-02-17T02:46:21.165Z,-0.64
2018-02-17T02:47:21.732Z,-0.72
2018-02-17T02:48:22.298Z,-0.67
2018-02-17T02:49:22.868Z,-0.71
2018-02-17T02:50:23.435Z,-0.59
2018-02-17T02:51:24.002Z,-0.62
2018-02-17T02:52:24.571Z,-0.61
2018-02-17T02:53:25.153Z,-0.68
2018-02-17T02:54:25.721Z,-0.70
2018-02-17T02:55:26.304Z,-0.57
2018-02-17T02:56:26.874Z,-0.41
2018-02-17T02:57:27.443Z,-0.32
2018-02-17T02:58:28.010Z,-0.39
2018-02-17T02:59:28.578Z,-0.36
2018-02-17T03:00:29.145Z,-0.38
2018-02-17T03:01:29.723Z,-0.46
2018-02-17T03:02:30.298Z,-0.41
2018-02-17T03:03:30.872Z,-0.43
2018-02-17T03:04:31.440Z,-0.49
2018-02-17T03:05:32.008Z,-0.49
2018-02-17T03:06:32.573Z,-0.54
2018-02-17T03:07:33.143Z,-0.52
2018-02-17T03:08:33.721Z,-0.54
2018-02-17T03:09:34.292Z,-0.56
2018-02-17T03:10:34.856Z,-0.56
2018-02-17T03:11:35.422Z,-0.56
2018-02-17T03:12:35.987Z,-0.54
2018-02-17T03:13:36.583Z,-0.36
2018-02-17T03:14:37.122Z,-0.47
2018-02-17T03:15:37.688Z,-0.62
2018-02-17T03:16:38.254Z,-0.67
2018-02-17T03:17:38.825Z,-0.54
2018-02-17T03:18:39.401Z,-0.35
2018-02-17T03:19:39.983Z,-0.31
2018-02-17T03:20:40.549Z,-0.44
2018-02-17T03:21:41.115Z,-0.43
2018-02-17T03:22:41.682Z,-0.36
2018-02-17T03:23:42.250Z,-0.38
2018-02-17T03:24:42.817Z,-0.52
2018-02-17T03:25:43.383Z,-0.50
2018-02-17T03:26:43.949Z,-0.49
2018-02-17T03:27:44.516Z,-0.56
2018-02-17T03:28:45.089Z,-0.71
2018-02-17T03:29:45.666Z,-0.68
2018-02-17T03:30:46.234Z,-0.61
2018-02-17T03:31:46.799Z,-0.70
2018-02-17T03:32:47.364Z,-0.65
2018-02-17T03:33:47.930Z,-0.80
2018-02-17T03:34:48.500Z,-0.65
2018-02-17T03:35:49.080Z,-0.67
2018-02-17T03:36:49.648Z,-0.75
2018-02-17T03:37:50.216Z,-0.64
2018-02-17T03:38:50.782Z,-0.54
2018-02-17T03:39:51.349Z,-0.50
2018-02-17T03:40:51.918Z,-0.43
2018-02-17T03:41:52.484Z,-0.41
2018-02-17T03:42:53.052Z,-0.36
2018-02-17T03:43:53.617Z,-0.52
2018-02-17T03:44:54.185Z,-0.57
2018-02-17T03:45:54.754Z,-0.57
2018-02-17T03:46:55.320Z,-0.78
2018-02-17T03:47:55.901Z,-0.75
2018-02-17T03:48:56.468Z,-0.54
2018-02-17T03:49:57.034Z,-0.52
2018-02-17T03:50:57.601Z,-0.86
2018-02-17T03:51:58.169Z,-0.82
2018-02-17T03:52:58.736Z,-0.85
2018-02-17T03:53:59.302Z,-0.62
2018-02-17T03:54:59.870Z,-0.62
2018-02-17T03:56:00.438Z,-0.65
2018-02-17T03:57:01.004Z,-0.64
2018-02-17T03:58:01.569Z,-0.82
2018-02-17T03:59:02.136Z,-0.72
2018-02-17T04:00:02.704Z,-0.68
2018-02-17T04:01:03.271Z,-0.74
2018-02-17T04:02:03.852Z,-0.62
2018-02-17T04:03:04.419Z,-0.70
2018-02-17T04:04:05.001Z,-0.70
2018-02-17T04:05:05.566Z,-0.54
2018-02-17T04:06:06.131Z,-0.64
2018-02-17T04:07:06.696Z,-0.46
2018-02-17T04:08:07.263Z,-0.61
2018-02-17T04:09:07.830Z,-0.61
2018-02-17T04:10:08.397Z,-0.62
2018-02-17T04:11:08.978Z,-0.68
2018-02-17T04:12:09.552Z,-0.71
2018-02-17T04:13:10.121Z,-0.80
2018-02-17T04:14:10.688Z,-0.82
2018-02-17T04:15:11.256Z,-0.86
2018-02-17T04:16:11.822Z,-0.82
2018-02-17T04:17:12.388Z,-0.85
2018-02-17T04:18:12.958Z,-0.78
2018-02-17T04:19:13.523Z,-0.64
2018-02-17T04:20:14.090Z,-0.70
2018-02-17T04:21:14.656Z,-0.57
2018-02-17T04:22:15.224Z,-0.78
2018-02-17T04:23:15.792Z,-0.67
2018-02-17T04:24:16.358Z,-0.59
2018-02-17T04:25:16.925Z,-0.74
2018-02-17T04:26:17.496Z,-0.82
2018-02-17T04:27:18.060Z,-1.07
2018-02-17T04:28:18.627Z,-0.94
2018-02-17T04:29:19.193Z,-0.68
2018-02-17T04:30:19.762Z,-0.85
2018-02-17T04:31:20.330Z,-0.70
2018-02-17T04:32:20.896Z,-0.71
2018-02-17T04:33:21.461Z,-0.70
2018-02-17T04:34:22.030Z,-0.71
2018-02-17T04:35:22.593Z,-0.53
2018-02-17T04:36:23.162Z,-0.71
2018-02-17T04:37:23.727Z,-0.85
2018-02-17T04:38:24.293Z,-0.70
2018-02-17T04:39:24.859Z,-0.71
2018-02-17T04:40:25.425Z,-0.89
2018-02-17T04:41:25.995Z,-0.90
2018-02-17T04:42:26.574Z,-0.93
2018-02-17T04:43:27.143Z,-0.68
2018-02-17T04:44:27.710Z,-0.64
2018-02-17T04:45:28.287Z,-0.61
2018-02-17T04:46:28.853Z,-0.67
2018-02-17T04:47:29.419Z,-0.70
2018-02-17T04:48:29.989Z,-0.74
2018-02-17T04:49:30.554Z,-0.67
2018-02-17T04:50:31.122Z,-0.74
2018-02-17T04:51:31.688Z,-0.78
2018-02-17T04:52:32.269Z,-0.78
2018-02-17T04:53:32.835Z,-0.67
2018-02-17T04:54:33.403Z,-0.89
2018-02-17T04:55:33.971Z,-1.14
2018-02-17T04:56:34.554Z,-1.05
2018-02-17T04:57:35.119Z,-0.90
2018-02-17T04:58:35.690Z,-0.83
2018-02-17T04:59:36.253Z,-0.72
2018-02-17T05:00:36.821Z,-0.64
2018-02-17T05:01:37.388Z,-0.74
2018-02-17T05:02:37.961Z,-0.65
2018-02-17T05:03:38.523Z,-0.64
2018-02-17T05:04:39.090Z,-0.85
2018-02-17T05:05:39.658Z,-0.78
2018-02-17T05:06:40.225Z,-0.86
2018-02-17T05:07:40.791Z,-0.82
2018-02-17T05:08:41.361Z,-0.64
2018-02-17T05:09:41.926Z,-0.64
2018-02-17T05:10:42.493Z,-0.68
2018-02-17T05:11:43.060Z,-0.71
2018-02-17T05:12:43.626Z,-0.62
2018-02-17T05:13:44.194Z,-0.61
2018-02-17T05:14:44.760Z,-0.70
2018-02-17T05:15:45.327Z,-0.86
2018-02-17T05:16:45.894Z,-0.78
2018-02-17T05:17:46.461Z,-0.59
2018-02-17T05:18:47.029Z,-0.57
2018-02-17T05:19:47.595Z,-0.85
2018-02-17T05:20:48.160Z,-0.56
2018-02-17T05:21:48.726Z,-0.68
2018-02-17T05:22:49.293Z,-0.86
2018-02-17T05:23:49.860Z,-0.68
2018-02-17T05:24:50.431Z,-0.74
2018-02-17T05:25:50.993Z,-0.86
2018-02-17T05:26:51.562Z,-0.96
2018-02-17T05:27:52.128Z,-1.11
2018-02-17T05:28:52.694Z,-0.91
2018-02-17T05:29:53.260Z,-0.74
2018-02-17T05:30:53.829Z,-0.71
2018-02-17T05:31:54.393Z,-0.72
2018-02-17T05:32:54.960Z,-0.78
2018-02-17T05:33:55.527Z,-0.56
2018-02-17T05:34:56.098Z,-0.62
2018-02-17T05:35:56.660Z,-0.62
2018-02-17T05:36:57.241Z,-0.91
2018-02-17T05:37:57.808Z,-1.11
2018-02-17T05:38:58.375Z,-0.83
2018-02-17T05:39:58.941Z,-1.02
2018-02-17T05:40:59.510Z,-1.07
2018-02-17T05:42:00.076Z,-1.14
2018-02-17T05:43:00.643Z,-0.85
2018-02-17T05:44:01.210Z,-0.85
2018-02-17T05:45:01.776Z,-0.93
2018-02-17T05:46:02.342Z,-0.85
2018-02-17T05:47:02.910Z,-0.86
2018-02-17T05:48:03.477Z,-0.70
2018-02-17T05:49:04.043Z,-0.65
2018-02-17T05:50:04.613Z,-0.74
2018-02-17T05:51:05.179Z,-0.61
2018-02-17T05:52:05.744Z,-0.70
2018-02-17T05:53:06.311Z,-0.78
2018-02-17T05:54:06.876Z,-0.75
2018-02-17T05:55:07.441Z,-0.62
2018-02-17T05:56:08.022Z,-0.61
2018-02-17T05:57:08.588Z,-0.61
2018-02-17T05:58:09.159Z,-0.82
2018-02-17T05:59:09.724Z,-0.82
2018-02-17T06:00:10.289Z,-0.80
2018-02-17T06:01:10.856Z,-0.83
2018-02-17T06:02:11.425Z,-0.83
2018-02-17T06:03:11.992Z,-0.85
2018-02-17T06:04:12.559Z,-0.68
2018-02-17T06:05:13.125Z,-0.61
2018-02-17T06:06:13.700Z,-0.71
2018-02-17T06:07:14.261Z,-0.85
2018-02-17T06:08:14.827Z,-0.80
2018-02-17T06:09:15.393Z,-0.90
2018-02-17T06:10:15.962Z,-0.96
2018-02-17T06:11:16.527Z,-1.11
2018-02-17T06:12:17.096Z,-0.78
2018-02-17T06:13:17.663Z,-0.80
2018-02-17T06:14:18.228Z,-0.89
2018-02-17T06:15:18.797Z,-0.90
2018-02-17T06:16:19.362Z,-0.72
2018-02-17T06:17:19.928Z,-0.91
2018-02-17T06:18:20.493Z,-0.85
2018-02-17T06:19:21.060Z,-0.85
2018-02-17T06:20:21.627Z,-1.01
2018-02-17T06:21:22.194Z,-0.96
2018-02-17T06:22:22.762Z,-0.91
2018-02-17T06:23:23.328Z,-0.86
2018-02-17T06:24:23.895Z,-0.85
2018-02-17T06:25:24.463Z,-1.01
2018-02-17T06:26:25.030Z,-0.90
2018-02-17T06:27:25.597Z,-0.80
2018-02-17T06:28:26.163Z,-0.93
2018-02-17T06:29:26.730Z,-0.90
2018-02-17T06:30:27.298Z,-0.70
2018-02-17T06:31:27.865Z,-0.85
2018-02-17T06:32:28.430Z,-1.08
2018-02-17T06:33:29.000Z,-1.04
2018-02-17T06:34:29.580Z,-0.80
2018-02-17T06:35:30.148Z,-0.71
2018-02-17T06:36:30.716Z,-0.80
2018-02-17T06:37:31.285Z,-0.99
2018-02-17T06:38:31.850Z,-0.71
2018-02-17T06:39:32.429Z,-0.85
2018-02-17T06:40:32.997Z,-0.75
2018-02-17T06:41:33.567Z,-1.07
2018-02-17T06:42:34.131Z,-0.97
2018-02-17T06:43:34.710Z,-1.01
2018-02-17T06:44:35.275Z,-0.82
2018-02-17T06:45:35.843Z,-0.83
2018-02-17T06:46:36.411Z,-1.05
2018-02-17T06:47:36.976Z,-0.83
2018-02-17T06:48:37.545Z,-0.90
2018-02-17T06:49:38.112Z,-0.86
2018-02-17T06:50:38.684Z,-0.80
2018-02-17T06:51:39.249Z,-0.80
2018-02-17T06:52:39.816Z,-0.72
2018-02-17T06:53:40.383Z,-0.82
2018-02-17T06:54:40.953Z,-0.72
2018-02-17T06:55:41.518Z,-0.99
2018-02-17T06:56:42.086Z,-0.86
2018-02-17T06:57:42.654Z,-0.93
2018-02-17T06:58:43.223Z,-0.82
2018-02-17T06:59:43.790Z,-0.91
2018-02-17T07:00:44.360Z,-0.85
2018-02-17T07:01:44.927Z,-0.86
2018-02-17T07:02:45.496Z,-0.75
2018-02-17T07:03:46.066Z,-0.83
2018-02-17T07:04:46.644Z,-0.94
2018-02-17T07:05:47.211Z,-0.85
2018-02-17T07:06:47.780Z,-0.86
2018-02-17T07:07:48.361Z,-0.90
2018-02-17T07:08:48.929Z,-0.93
2018-02-17T07:09:49.510Z,-0.82
2018-02-17T07:10:50.080Z,-0.54
2018-02-17T07:11:50.646Z,-0.68
2018-02-17T07:12:51.212Z,-0.57
2018-02-17T07:13:51.781Z,-0.68
2018-02-17T07:14:52.352Z,-0.78
2018-02-17T07:15:52.915Z,-0.62
2018-02-17T07:16:53.481Z,-0.61
2018-02-17T07:17:54.061Z,-0.85
2018-02-17T07:18:54.629Z,-0.85
2018-02-17T07:19:55.209Z,-0.80
2018-02-17T07:20:55.778Z,-0.71
2018-02-17T07:21:56.346Z,-0.68
2018-02-17T07:22:56.914Z,-0.56
2018-02-17T07:23:57.481Z,-0.62
2018-02-17T07:24:58.051Z,-0.62
2018-02-17T07:25:58.614Z,-0.71
2018-02-17T07:26:59.182Z,-0.75
2018-02-17T07:27:59.749Z,-0.68
2018-02-17T07:29:00.317Z,-0.57
2018-02-17T07:30:00.900Z,-0.56
2018-02-17T07:31:01.469Z,-0.61
2018-02-17T07:32:02.040Z,-0.61
2018-02-17T07:33:02.604Z,-0.62
2018-02-17T07:34:03.189Z,-0.65
2018-02-17T07:35:03.793Z,-0.54
2018-02-17T07:36:04.334Z,-0.52
2018-02-17T07:37:04.905Z,-0.57
2018-02-17T07:38:05.487Z,-0.56
2018-02-17T07:39:06.055Z,-0.46
2018-02-17T07:40:06.624Z,-0.36
2018-02-17T07:41:07.194Z,-0.38
2018-02-17T07:42:07.763Z,-0.38
2018-02-17T07:43:08.330Z,-0.39
2018-02-17T07:44:08.905Z,-0.35
2018-02-17T07:45:09.470Z,-0.38
2018-02-17T07:46:10.039Z,-0.43
2018-02-17T07:47:10.609Z,-0.44
2018-02-17T07:48:11.178Z,-0.34
2018-02-17T07:49:11.759Z,-0.35
2018-02-17T07:50:12.328Z,-0.44
2018-02-17T07:51:12.897Z,-0.41
2018-02-17T07:52:13.466Z,-0.17
2018-02-17T07:53:14.034Z,-0.20
2018-02-17T07:54:14.601Z,-0.02
2018-02-17T07:55:15.172Z,-0.11
2018-02-17T07:56:15.741Z,-0.23
2018-02-17T07:57:16.309Z,-0.14
2018-02-17T07:58:16.879Z,-0.08
2018-02-17T07:59:17.449Z,-0.11
2018-02-17T08:00:18.017Z,-0.08
2018-02-17T08:01:18.588Z,-0.15
2018-02-17T08:02:19.158Z,-0.18
2018-02-17T08:03:19.741Z,-0.15
2018-02-17T08:04:20.309Z,0.00
2018-02-17T08:05:20.879Z,-0.02
2018-02-17T08:06:21.463Z,-0.08
2018-02-17T08:07:22.033Z,-0.06
2018-02-17T08:08:22.604Z,0.16
2018-02-17T08:09:23.184Z,0.16
2018-02-17T08:10:23.758Z,0.07
2018-02-17T08:11:24.322Z,0.05
2018-02-17T08:12:24.890Z,0.04
2018-02-17T08:13:25.458Z,0.12
2018-02-17T08:14:26.027Z,0.12
2018-02-17T08:15:26.619Z,0.29
2018-02-17T08:16:27.176Z,0.29
2018-02-17T08:17:27.753Z,0.36
2018-02-17T08:18:28.323Z,0.34
2018-02-17T08:19:28.893Z,0.39
2018-02-17T08:20:29.476Z,0.32
2018-02-17T08:21:30.045Z,0.36
2018-02-17T08:22:30.614Z,0.32
2018-02-17T08:23:31.198Z,0.44
2018-02-17T08:24:31.783Z,0.34
2018-02-17T08:25:32.335Z,0.44
2018-02-17T08:26:32.906Z,0.52
2018-02-17T08:27:33.475Z,0.60
2018-02-17T08:28:34.042Z,0.73
2018-02-17T08:29:34.613Z,0.70
2018-02-17T08:30:35.184Z,0.74
2018-02-17T08:31:35.750Z,0.68
2018-02-17T08:32:36.319Z,0.59
2018-02-17T08:33:36.888Z,0.63
2018-02-17T08:34:37.458Z,0.69
2018-02-17T08:35:38.025Z,0.68
2018-02-17T08:36:38.594Z,0.68
2018-02-17T08:37:39.164Z,0.66
2018-02-17T08:38:39.734Z,0.69
2018-02-17T08:39:40.303Z,0.77
2018-02-17T08:40:40.874Z,0.74
2018-02-17T08:41:41.444Z,0.68
2018-02-17T08:42:42.028Z,0.78
2018-02-17T08:43:42.598Z,0.84
2018-02-17T08:44:43.179Z,0.83
2018-02-17T08:45:43.754Z,0.83
2018-02-17T08:46:44.323Z,0.88
2018-02-17T08:47:44.894Z,0.87
2018-02-17T08:48:45.465Z,0.78
2018-02-17T08:49:46.034Z,0.95
2018-02-17T08:50:46.604Z,1.05
2018-02-17T08:51:47.174Z,0.91
2018-02-17T08:52:47.744Z,0.88
2018-02-17T08:53:48.314Z,1.16
2018-02-17T08:54:48.889Z,1.06
2018-02-17T08:55:49.452Z,1.16
2018-02-17T08:56:50.022Z,1.12
2018-02-17T08:57:50.594Z,1.22
2018-02-17T08:58:51.163Z,1.01
2018-02-17T08:59:51.733Z,1.24
2018-02-17T09:00:52.305Z,1.48
2018-02-17T09:01:52.874Z,1.52
2018-02-17T09:02:53.444Z,1.55
2018-02-17T09:03:54.014Z,1.34
2018-02-17T09:04:54.583Z,1.38
2018-02-17T09:05:55.153Z,1.45
2018-02-17T09:06:55.725Z,1.53
2018-02-17T09:07:56.298Z,1.48
2018-02-17T09:08:56.865Z,1.52
2018-02-17T09:09:57.437Z,1.56
2018-02-17T09:10:58.008Z,1.55
2018-02-17T09:11:58.576Z,1.52
2018-02-17T09:12:59.147Z,1.44
2018-02-17T09:13:59.716Z,1.20
2018-02-17T09:15:00.290Z,1.45
2018-02-17T09:16:00.858Z,1.42
2018-02-17T09:17:01.441Z,1.42
2018-02-17T09:18:02.013Z,1.53
2018-02-17T09:19:02.582Z,1.67
2018-02-17T09:20:03.153Z,1.62
2018-02-17T09:21:03.724Z,1.53
2018-02-17T09:22:04.294Z,1.41
2018-02-17T09:23:04.864Z,1.67
2018-02-17T09:24:05.433Z,1.66
2018-02-17T09:25:06.006Z,1.67
2018-02-17T09:26:06.575Z,1.77
2018-02-17T09:27:07.144Z,1.81
2018-02-17T09:28:07.714Z,1.84
2018-02-17T09:29:08.286Z,1.87
2018-02-17T09:30:08.856Z,1.66
2018-02-17T09:31:09.426Z,1.66
2018-02-17T09:32:09.996Z,1.78
2018-02-17T09:33:10.571Z,1.88
2018-02-17T09:34:11.136Z,2.02
2018-02-17T09:35:11.707Z,1.99
2018-02-17T09:36:12.277Z,2.02
2018-02-17T09:37:12.845Z,1.92
2018-02-17T09:38:13.416Z,1.89
2018-02-17T09:39:13.984Z,1.85
2018-02-17T09:40:14.556Z,1.77
2018-02-17T09:41:15.124Z,1.81
2018-02-17T09:42:15.693Z,1.94
2018-02-17T09:43:16.262Z,1.81
2018-02-17T09:44:16.833Z,1.74
2018-02-17T09:45:17.402Z,1.78
2018-02-17T09:46:17.977Z,1.76
2018-02-17T09:47:18.542Z,1.87
2018-02-17T09:48:19.113Z,1.91
2018-02-17T09:49:19.684Z,1.80
2018-02-17T09:50:20.254Z,1.78
2018-02-17T09:51:20.824Z,1.78
2018-02-17T09:52:21.394Z,2.02
2018-02-17T09:53:21.967Z,1.97
2018-02-17T09:54:22.534Z,1.97
2018-02-17T09:55:23.104Z,1.99
2018-02-17T09:56:23.674Z,2.08
2018-02-17T09:57:24.245Z,2.14
2018-02-17T09:58:24.816Z,2.14
2018-02-17T09:59:25.386Z,2.11
2018-02-17T10:00:25.970Z,2.24
2018-02-17T10:01:26.541Z,2.26
2018-02-17T10:02:27.113Z,2.29
2018-02-17T10:03:27.688Z,2.29
2018-02-17T10:04:28.268Z,2.38
2018-02-17T10:05:28.839Z,2.42
2018-02-17T10:06:29.411Z,2.43
2018-02-17T10:07:29.984Z,2.46
2018-02-17T10:08:30.550Z,2.46
2018-02-17T10:09:31.126Z,2.60
2018-02-17T10:10:31.693Z,2.56
2018-02-17T10:11:32.265Z,2.51
2018-02-17T10:12:32.835Z,2.50
2018-02-17T10:13:33.404Z,2.51
2018-02-17T10:14:33.974Z,2.62
2018-02-17T10:15:34.547Z,2.71
2018-02-17T10:16:35.116Z,2.64
2018-02-17T10:17:35.685Z,2.54
2018-02-17T10:18:36.258Z,2.57
2018-02-17T10:19:36.829Z,2.53
2018-02-17T10:20:37.398Z,2.49
2018-02-17T10:21:37.971Z,2.51
2018-02-17T10:22:38.541Z,2.51
2018-02-17T10:23:39.111Z,2.62
2018-02-17T10:24:39.684Z,2.57
2018-02-17T10:25:40.254Z,2.57
2018-02-17T10:26:40.838Z,2.60
2018-02-17T10:27:41.408Z,2.67
2018-02-17T10:28:41.981Z,2.72
2018-02-17T10:29:42.549Z,2.92
2018-02-17T10:30:43.120Z,2.90
2018-02-17T10:31:43.690Z,2.95
2018-02-17T10:32:44.261Z,3.07
2018-02-17T10:33:44.834Z,2.82
2018-02-17T10:34:45.401Z,2.92
2018-02-17T10:35:45.972Z,2.97
2018-02-17T10:36:46.545Z,3.07
2018-02-17T10:37:47.116Z,3.07
2018-02-17T10:38:47.687Z,3.16
2018-02-17T10:39:48.259Z,3.18
2018-02-17T10:40:48.829Z,3.11
2018-02-17T10:41:49.401Z,3.03
2018-02-17T10:42:49.972Z,3.05
2018-02-17T10:43:50.556Z,3.19
2018-02-17T10:44:51.125Z,3.05
2018-02-17T10:45:51.696Z,3.13
2018-02-17T10:46:52.267Z,3.18
2018-02-17T10:47:52.839Z,3.16
2018-02-17T10:48:53.409Z,3.21
2018-02-17T10:49:53.981Z,3.19
2018-02-17T10:50:54.552Z,3.14
2018-02-17T10:51:55.123Z,3.21
2018-02-17T10:52:55.696Z,3.36
2018-02-17T10:53:56.266Z,3.34
2018-02-17T10:54:56.837Z,3.34
2018-02-17T10:55:57.410Z,3.32
2018-02-17T10:56:57.994Z,3.40
2018-02-17T10:57:58.564Z,3.48
2018-02-17T10:58:59.135Z,3.34
2018-02-17T10:59:59.705Z,3.31
2018-02-17T11:01:00.280Z,3.50
2018-02-17T11:02:00.860Z,3.53
2018-02-17T11:03:01.443Z,3.66
2018-02-17T11:04:02.016Z,3.62
2018-02-17T11:05:02.586Z,3.60
2018-02-17T11:06:03.158Z,3.62
2018-02-17T11:07:03.728Z,3.73
2018-02-17T11:08:04.298Z,3.65
2018-02-17T11:09:04.883Z,3.65
2018-02-17T11:10:05.457Z,3.70
2018-02-17T11:11:06.037Z,3.65
2018-02-17T11:12:06.612Z,3.74
2018-02-17T11:13:07.180Z,3.77
2018-02-17T11:14:07.750Z,3.76
2018-02-17T11:15:08.321Z,3.81
2018-02-17T11:16:08.896Z,3.70
2018-02-17T11:17:09.466Z,3.83
2018-02-17T11:18:10.037Z,3.80
2018-02-17T11:19:10.606Z,3.73
2018-02-17T11:20:11.176Z,3.73
2018-02-17T11:21:11.760Z,3.73
2018-02-17T11:22:12.317Z,3.65
2018-02-17T11:23:12.890Z,3.76
2018-02-17T11:24:13.460Z,3.83
2018-02-17T11:25:14.031Z,3.86
2018-02-17T11:26:14.606Z,3.94
2018-02-17T11:27:15.173Z,3.94
2018-02-17T11:28:15.746Z,4.01
2018-02-17T11:29:16.317Z,3.94
2018-02-17T11:30:16.888Z,3.84
2018-02-17T11:31:17.459Z,3.91
2018-02-17T11:32:18.031Z,4.01
2018-02-17T11:33:18.601Z,3.95
2018-02-17T11:34:19.185Z,4.02
2018-02-17T11:35:19.755Z,4.05
2018-02-17T11:36:20.344Z,4.16
2018-02-17T11:37:20.912Z,4.06
2018-02-17T11:38:21.483Z,4.05
2018-02-17T11:39:22.056Z,4.06
2018-02-17T11:40:22.626Z,4.19
2018-02-17T11:41:23.252Z,4.16
2018-02-17T11:42:23.782Z,4.31
2018-02-17T11:43:24.355Z,4.32
2018-02-17T11:44:24.926Z,4.30
2018-02-17T11:45:25.497Z,4.28
2018-02-17T11:46:26.074Z,4.28
2018-02-17T11:47:26.643Z,4.35
2018-02-17T11:48:27.216Z,4.45
2018-02-17T11:49:27.783Z,4.44
2018-02-17T11:50:28.353Z,4.63
2018-02-17T11:51:28.924Z,4.62
2018-02-17T11:52:29.497Z,4.60
2018-02-17T11:53:30.069Z,4.60
2018-02-17T11:54:30.642Z,4.80
2018-02-17T11:55:31.226Z,4.84
2018-02-17T11:56:31.798Z,4.77
2018-02-17T11:57:32.369Z,4.87
2018-02-17T11:58:32.942Z,4.77
2018-02-17T11:59:33.536Z,4.92
2018-02-17T12:00:34.093Z,4.75
2018-02-17T12:01:34.668Z,4.63
2018-02-17T12:02:35.250Z,4.73
2018-02-17T12:03:35.824Z,4.93
2018-02-17T12:04:36.395Z,5.00
2018-02-17T12:05:36.969Z,4.92
2018-02-17T12:06:37.554Z,5.10
2018-02-17T12:07:38.142Z,5.11
2018-02-17T12:08:38.715Z,5.08
2018-02-17T12:09:39.287Z,5.14
2018-02-17T12:10:39.858Z,5.07
2018-02-17T12:11:40.432Z,5.07
2018-02-17T12:12:41.012Z,5.10
2018-02-17T12:13:41.588Z,5.10
2018-02-17T12:14:42.161Z,4.97
2018-02-17T12:15:42.733Z,5.00
2018-02-17T12:16:43.305Z,5.08
2018-02-17T12:17:43.879Z,5.08
2018-02-17T12:18:44.462Z,5.20
2018-02-17T12:19:45.051Z,5.20
2018-02-17T12:20:45.633Z,5.28
2018-02-17T12:21:46.207Z,5.32
2018-02-17T12:22:46.778Z,5.29
2018-02-17T12:23:47.354Z,5.46
2018-02-17T12:24:47.930Z,5.44
2018-02-17T12:25:48.493Z,5.39
2018-02-17T12:26:49.064Z,5.46
2018-02-17T12:27:49.647Z,5.50
2018-02-17T12:28:50.218Z,5.65
2018-02-17T12:29:50.791Z,5.61
2018-02-17T12:30:51.363Z,5.73
2018-02-17T12:31:51.935Z,5.71
2018-02-17T12:32:52.507Z,5.73
2018-02-17T12:33:53.080Z,5.80
2018-02-17T12:34:53.652Z,5.86
2018-02-17T12:35:54.226Z,5.89
2018-02-17T12:36:54.797Z,5.87
2018-02-17T12:37:55.368Z,5.82
2018-02-17T12:38:55.941Z,5.91
2018-02-17T12:39:56.513Z,5.87
2018-02-17T12:40:57.107Z,5.99
2018-02-17T12:41:57.670Z,5.94
2018-02-17T12:42:58.240Z,6.11
2018-02-17T12:43:58.813Z,6.11
2018-02-17T12:44:59.385Z,6.16
2018-02-17T12:45:59.961Z,6.14
2018-02-17T12:47:00.530Z,6.22
2018-02-17T12:48:01.100Z,6.19
2018-02-17T12:49:01.671Z,6.09
2018-02-17T12:50:02.243Z,6.17
2018-02-17T12:51:02.831Z,6.33
2018-02-17T12:52:03.404Z,6.14
2018-02-17T12:53:03.986Z,6.30
2018-02-17T12:54:04.564Z,6.33
2018-02-17T12:55:05.136Z,6.30
2018-02-17T12:56:05.709Z,6.31
2018-02-17T12:57:06.285Z,6.36
2018-02-17T12:58:06.861Z,6.39
2018-02-17T12:59:07.429Z,6.51
2018-02-17T13:00:08.003Z,6.48
2018-02-17T13:01:08.575Z,6.33
2018-02-17T13:02:09.149Z,6.26
2018-02-17T13:03:09.723Z,6.48
2018-02-17T13:04:10.295Z,6.51
2018-02-17T13:05:10.868Z,6.57
2018-02-17T13:06:11.454Z,6.33
2018-02-17T13:07:12.028Z,6.41
2018-02-17T13:08:12.602Z,6.30
2018-02-17T13:09:13.176Z,6.44
2018-02-17T13:10:13.761Z,6.51
2018-02-17T13:11:14.338Z,6.42